sensor_id;sensor_type;location;lat;lon;timestamp;P1;durP1;ratioP1;P2;durP2;ratioP2
57309;SDS011;43153;50.984;18.204;2022-12-04T00:01:07;51.70;;;22.00;;
57309;SDS011;43153;50.984;18.204;2022-12-04T00:03:38;62.10;;;27.00;;
57309;SDS011;43153;50.984;18.204;2022-12-04T00:06:08;64.00;;;26.60;;
57309;SDS011;43153;50.984;18.204;2022-12-04T00:08:37;62.20;;;25.70;;
57309;SDS011;43153;50.984;18.204;2022-12-04T00:11:06;63.30;;;26.20;;
57309;SDS011;43153;50.984;18.204;2022-12-04T00:13:35;58.40;;;23.70;;
57309;SDS011;43153;50.984;18.204;2022-12-04T00:16:05;58.30;;;24.90;;
57309;SDS011;43153;50.984;18.204;2022-12-04T00:18:37;61.70;;;27.40;;
57309;SDS011;43153;50.984;18.204;2022-12-04T00:21:10;56.70;;;24.10;;
57309;SDS011;43153;50.984;18.204;2022-12-04T00:23:37;57.00;;;23.00;;
57309;SDS011;43153;50.984;18.204;2022-12-04T00:26:06;58.00;;;21.80;;
57309;SDS011;43153;50.984;18.204;2022-12-04T00:28:41;54.20;;;23.90;;
57309;SDS011;43153;50.984;18.204;2022-12-04T00:31:08;55.90;;;24.00;;
57309;SDS011;43153;50.984;18.204;2022-12-04T00:33:36;53.90;;;23.80;;
57309;SDS011;43153;50.984;18.204;2022-12-04T00:36:04;48.00;;;20.90;;
57309;SDS011;43153;50.984;18.204;2022-12-04T00:38:32;58.30;;;23.90;;
57309;SDS011;43153;50.984;18.204;2022-12-04T00:41:09;50.00;;;21.30;;
57309;SDS011;43153;50.984;18.204;2022-12-04T00:43:47;54.10;;;21.60;;
57309;SDS011;43153;50.984;18.204;2022-12-04T00:46:15;55.70;;;22.20;;
57309;SDS011;43153;50.984;18.204;2022-12-04T00:48:42;54.90;;;22.60;;
57309;SDS011;43153;50.984;18.204;2022-12-04T00:51:14;53.00;;;23.60;;
57309;SDS011;43153;50.984;18.204;2022-12-04T00:53:48;55.80;;;23.00;;
57309;SDS011;43153;50.984;18.204;2022-12-04T00:56:18;57.10;;;20.40;;
57309;SDS011;43153;50.984;18.204;2022-12-04T00:58:46;50.00;;;21.30;;
57309;SDS011;43153;50.984;18.204;2022-12-04T01:01:17;55.80;;;22.30;;
57309;SDS011;43153;50.984;18.204;2022-12-04T01:03:44;59.80;;;23.40;;
57309;SDS011;43153;50.984;18.204;2022-12-04T01:06:34;52.40;;;23.00;;
57309;SDS011;43153;50.984;18.204;2022-12-04T01:09:02;49.80;;;20.00;;
57309;SDS011;43153;50.984;18.204;2022-12-04T01:11:32;57.40;;;23.80;;
57309;SDS011;43153;50.984;18.204;2022-12-04T01:14:04;52.20;;;20.20;;
57309;SDS011;43153;50.984;18.204;2022-12-04T01:16:34;53.10;;;22.40;;
57309;SDS011;43153;50.984;18.204;2022-12-04T01:19:03;59.60;;;24.30;;
57309;SDS011;43153;50.984;18.204;2022-12-04T01:21:33;53.00;;;21.70;;
57309;SDS011;43153;50.984;18.204;2022-12-04T01:24:01;55.90;;;24.20;;
57309;SDS011;43153;50.984;18.204;2022-12-04T01:26:27;50.00;;;21.00;;
57309;SDS011;43153;50.984;18.204;2022-12-04T01:28:56;48.70;;;21.10;;
57309;SDS011;43153;50.984;18.204;2022-12-04T01:31:22;59.70;;;24.50;;
57309;SDS011;43153;50.984;18.204;2022-12-04T01:33:51;57.80;;;24.20;;
57309;SDS011;43153;50.984;18.204;2022-12-04T01:36:20;47.00;;;20.60;;
57309;SDS011;43153;50.984;18.204;2022-12-04T01:38:51;51.80;;;23.30;;
57309;SDS011;43153;50.984;18.204;2022-12-04T01:41:22;49.60;;;21.60;;
57309;SDS011;43153;50.984;18.204;2022-12-04T01:49:28;58.20;;;22.90;;
57309;SDS011;43153;50.984;18.204;2022-12-04T01:51:58;47.50;;;21.60;;
57309;SDS011;43153;50.984;18.204;2022-12-04T01:54:38;57.40;;;23.30;;
57309;SDS011;43153;50.984;18.204;2022-12-04T01:57:11;49.20;;;21.80;;
57309;SDS011;43153;50.984;18.204;2022-12-04T02:02:23;55.40;;;22.90;;
57309;SDS011;43153;50.984;18.204;2022-12-04T02:04:51;55.80;;;21.90;;
57309;SDS011;43153;50.984;18.204;2022-12-04T02:07:22;57.00;;;24.70;;
57309;SDS011;43153;50.984;18.204;2022-12-04T02:09:47;57.00;;;25.20;;
57309;SDS011;43153;50.984;18.204;2022-12-04T02:15:13;58.00;;;24.20;;
57309;SDS011;43153;50.984;18.204;2022-12-04T02:17:44;56.90;;;22.70;;
57309;SDS011;43153;50.984;18.204;2022-12-04T02:23:18;52.10;;;22.90;;
57309;SDS011;43153;50.984;18.204;2022-12-04T02:26:04;52.30;;;23.40;;
57309;SDS011;43153;50.984;18.204;2022-12-04T02:28:55;49.30;;;22.00;;
57309;SDS011;43153;50.984;18.204;2022-12-04T02:31:29;53.90;;;22.80;;
57309;SDS011;43153;50.984;18.204;2022-12-04T02:34:01;58.40;;;23.20;;
57309;SDS011;43153;50.984;18.204;2022-12-04T02:36:30;54.50;;;24.20;;
57309;SDS011;43153;50.984;18.204;2022-12-04T02:39:08;53.80;;;24.50;;
57309;SDS011;43153;50.984;18.204;2022-12-04T02:41:44;53.00;;;22.10;;
57309;SDS011;43153;50.984;18.204;2022-12-04T02:44:19;63.00;;;23.80;;
57309;SDS011;43153;50.984;18.204;2022-12-04T02:46:47;54.50;;;23.00;;
57309;SDS011;43153;50.984;18.204;2022-12-04T02:49:18;52.10;;;24.50;;
57309;SDS011;43153;50.984;18.204;2022-12-04T02:51:52;52.70;;;23.40;;
57309;SDS011;43153;50.984;18.204;2022-12-04T02:54:27;56.20;;;23.10;;
57309;SDS011;43153;50.984;18.204;2022-12-04T02:57:00;53.00;;;20.10;;
57309;SDS011;43153;50.984;18.204;2022-12-04T02:59:31;53.90;;;24.30;;
57309;SDS011;43153;50.984;18.204;2022-12-04T03:02:09;52.20;;;23.80;;
57309;SDS011;43153;50.984;18.204;2022-12-04T03:04:50;55.70;;;23.80;;
57309;SDS011;43153;50.984;18.204;2022-12-04T03:07:28;64.40;;;25.80;;
57309;SDS011;43153;50.984;18.204;2022-12-04T03:10:02;53.20;;;24.20;;
57309;SDS011;43153;50.984;18.204;2022-12-04T03:12:41;50.90;;;23.30;;
57309;SDS011;43153;50.984;18.204;2022-12-04T03:15:21;53.90;;;26.70;;
57309;SDS011;43153;50.984;18.204;2022-12-04T03:18:03;54.40;;;25.70;;
57309;SDS011;43153;50.984;18.204;2022-12-04T03:20:37;52.80;;;24.00;;
57309;SDS011;43153;50.984;18.204;2022-12-04T03:23:06;55.70;;;23.00;;
57309;SDS011;43153;50.984;18.204;2022-12-04T03:25:43;57.20;;;23.30;;
57309;SDS011;43153;50.984;18.204;2022-12-04T03:31:14;62.90;;;26.70;;
57309;SDS011;43153;50.984;18.204;2022-12-04T03:33:55;57.80;;;26.00;;
57309;SDS011;43153;50.984;18.204;2022-12-04T03:36:27;59.30;;;25.90;;
57309;SDS011;43153;50.984;18.204;2022-12-04T03:39:10;52.80;;;24.20;;
57309;SDS011;43153;50.984;18.204;2022-12-04T03:41:45;51.60;;;24.20;;
57309;SDS011;43153;50.984;18.204;2022-12-04T03:47:20;56.70;;;24.20;;
57309;SDS011;43153;50.984;18.204;2022-12-04T03:52:54;55.60;;;23.30;;
57309;SDS011;43153;50.984;18.204;2022-12-04T03:58:12;60.70;;;26.10;;
57309;SDS011;43153;50.984;18.204;2022-12-04T04:00:41;57.70;;;24.40;;
57309;SDS011;43153;50.984;18.204;2022-12-04T04:03:10;56.50;;;24.70;;
57309;SDS011;43153;50.984;18.204;2022-12-04T04:05:46;55.90;;;23.40;;
57309;SDS011;43153;50.984;18.204;2022-12-04T04:08:16;54.70;;;23.90;;
57309;SDS011;43153;50.984;18.204;2022-12-04T04:11:12;47.60;;;22.40;;
57309;SDS011;43153;50.984;18.204;2022-12-04T04:13:50;53.70;;;22.70;;
57309;SDS011;43153;50.984;18.204;2022-12-04T04:16:37;52.50;;;22.20;;
57309;SDS011;43153;50.984;18.204;2022-12-04T04:19:24;54.40;;;22.10;;
57309;SDS011;43153;50.984;18.204;2022-12-04T04:22:18;48.10;;;19.70;;
57309;SDS011;43153;50.984;18.204;2022-12-04T04:25:09;52.40;;;22.40;;
57309;SDS011;43153;50.984;18.204;2022-12-04T04:27:39;51.60;;;22.30;;
57309;SDS011;43153;50.984;18.204;2022-12-04T04:30:05;50.70;;;22.40;;
57309;SDS011;43153;50.984;18.204;2022-12-04T04:32:44;54.90;;;23.40;;
57309;SDS011;43153;50.984;18.204;2022-12-04T04:38:30;53.10;;;23.50;;
57309;SDS011;43153;50.984;18.204;2022-12-04T04:41:22;49.40;;;23.40;;
57309;SDS011;43153;50.984;18.204;2022-12-04T04:43:56;49.80;;;23.70;;
57309;SDS011;43153;50.984;18.204;2022-12-04T04:46:32;45.90;;;20.50;;
57309;SDS011;43153;50.984;18.204;2022-12-04T04:49:01;46.50;;;19.80;;
57309;SDS011;43153;50.984;18.204;2022-12-04T04:51:30;50.00;;;21.80;;
57309;SDS011;43153;50.984;18.204;2022-12-04T04:54:02;50.80;;;22.10;;
57309;SDS011;43153;50.984;18.204;2022-12-04T04:56:29;44.30;;;20.70;;
57309;SDS011;43153;50.984;18.204;2022-12-04T04:58:56;46.40;;;21.80;;
57309;SDS011;43153;50.984;18.204;2022-12-04T05:01:25;51.90;;;23.60;;
57309;SDS011;43153;50.984;18.204;2022-12-04T05:03:53;53.00;;;23.20;;
57309;SDS011;43153;50.984;18.204;2022-12-04T05:06:19;47.50;;;19.80;;
57309;SDS011;43153;50.984;18.204;2022-12-04T05:08:45;49.20;;;22.40;;
57309;SDS011;43153;50.984;18.204;2022-12-04T05:11:16;44.60;;;19.40;;
57309;SDS011;43153;50.984;18.204;2022-12-04T05:13:42;43.10;;;18.30;;
57309;SDS011;43153;50.984;18.204;2022-12-04T05:16:11;41.30;;;19.20;;
57309;SDS011;43153;50.984;18.204;2022-12-04T05:18:46;43.50;;;19.30;;
57309;SDS011;43153;50.984;18.204;2022-12-04T05:21:53;41.50;;;18.00;;
57309;SDS011;43153;50.984;18.204;2022-12-04T05:24:21;45.80;;;19.50;;
57309;SDS011;43153;50.984;18.204;2022-12-04T05:26:47;41.60;;;18.70;;
57309;SDS011;43153;50.984;18.204;2022-12-04T05:29:13;47.70;;;20.90;;
57309;SDS011;43153;50.984;18.204;2022-12-04T05:31:44;46.50;;;19.60;;
57309;SDS011;43153;50.984;18.204;2022-12-04T05:34:10;44.10;;;19.80;;
57309;SDS011;43153;50.984;18.204;2022-12-04T05:36:35;45.70;;;18.40;;
57309;SDS011;43153;50.984;18.204;2022-12-04T05:39:05;43.20;;;18.10;;
57309;SDS011;43153;50.984;18.204;2022-12-04T05:41:33;47.60;;;18.50;;
57309;SDS011;43153;50.984;18.204;2022-12-04T05:43:59;43.40;;;18.10;;
57309;SDS011;43153;50.984;18.204;2022-12-04T05:46:27;48.50;;;24.20;;
57309;SDS011;43153;50.984;18.204;2022-12-04T05:48:53;53.80;;;22.80;;
57309;SDS011;43153;50.984;18.204;2022-12-04T05:51:19;44.70;;;20.10;;
57309;SDS011;43153;50.984;18.204;2022-12-04T05:53:46;46.50;;;20.10;;
57309;SDS011;43153;50.984;18.204;2022-12-04T05:56:13;41.20;;;19.30;;
57309;SDS011;43153;50.984;18.204;2022-12-04T05:58:39;54.80;;;22.80;;
57309;SDS011;43153;50.984;18.204;2022-12-04T06:01:12;41.10;;;18.50;;
57309;SDS011;43153;50.984;18.204;2022-12-04T06:03:42;41.50;;;17.50;;
57309;SDS011;43153;50.984;18.204;2022-12-04T06:06:12;43.70;;;19.90;;
57309;SDS011;43153;50.984;18.204;2022-12-04T06:08:39;51.90;;;21.00;;
57309;SDS011;43153;50.984;18.204;2022-12-04T06:11:09;47.90;;;18.70;;
57309;SDS011;43153;50.984;18.204;2022-12-04T06:13:41;48.50;;;21.50;;
57309;SDS011;43153;50.984;18.204;2022-12-04T06:16:12;51.10;;;20.00;;
57309;SDS011;43153;50.984;18.204;2022-12-04T06:18:50;47.50;;;20.70;;
57309;SDS011;43153;50.984;18.204;2022-12-04T06:21:18;41.20;;;18.50;;
57309;SDS011;43153;50.984;18.204;2022-12-04T06:23:45;44.60;;;19.60;;
57309;SDS011;43153;50.984;18.204;2022-12-04T06:26:11;40.60;;;18.80;;
57309;SDS011;43153;50.984;18.204;2022-12-04T06:28:37;39.40;;;18.00;;
57309;SDS011;43153;50.984;18.204;2022-12-04T06:31:05;37.60;;;16.80;;
57309;SDS011;43153;50.984;18.204;2022-12-04T06:33:35;41.60;;;18.10;;
57309;SDS011;43153;50.984;18.204;2022-12-04T06:36:06;38.00;;;17.90;;
57309;SDS011;43153;50.984;18.204;2022-12-04T06:38:34;43.20;;;16.50;;
57309;SDS011;43153;50.984;18.204;2022-12-04T06:41:04;39.10;;;17.70;;
57309;SDS011;43153;50.984;18.204;2022-12-04T06:43:34;52.50;;;21.50;;
57309;SDS011;43153;50.984;18.204;2022-12-04T06:46:05;45.50;;;18.90;;
57309;SDS011;43153;50.984;18.204;2022-12-04T06:48:34;40.40;;;17.70;;
57309;SDS011;43153;50.984;18.204;2022-12-04T06:51:06;40.50;;;18.00;;
57309;SDS011;43153;50.984;18.204;2022-12-04T06:53:33;42.20;;;18.60;;
57309;SDS011;43153;50.984;18.204;2022-12-04T06:56:02;34.20;;;16.10;;
57309;SDS011;43153;50.984;18.204;2022-12-04T06:58:30;39.60;;;19.60;;
57309;SDS011;43153;50.984;18.204;2022-12-04T07:00:57;39.60;;;17.20;;
57309;SDS011;43153;50.984;18.204;2022-12-04T07:03:30;36.20;;;16.80;;
57309;SDS011;43153;50.984;18.204;2022-12-04T07:05:56;36.30;;;16.00;;
57309;SDS011;43153;50.984;18.204;2022-12-04T07:08:25;32.80;;;16.70;;
57309;SDS011;43153;50.984;18.204;2022-12-04T07:10:52;34.50;;;16.80;;
57309;SDS011;43153;50.984;18.204;2022-12-04T07:13:21;33.80;;;16.10;;
57309;SDS011;43153;50.984;18.204;2022-12-04T07:15:47;39.70;;;17.50;;
57309;SDS011;43153;50.984;18.204;2022-12-04T07:18:13;49.10;;;21.80;;
57309;SDS011;43153;50.984;18.204;2022-12-04T07:20:40;47.40;;;20.70;;
57309;SDS011;43153;50.984;18.204;2022-12-04T07:23:06;36.00;;;15.60;;
57309;SDS011;43153;50.984;18.204;2022-12-04T07:25:32;33.20;;;16.40;;
57309;SDS011;43153;50.984;18.204;2022-12-04T07:27:58;36.70;;;16.10;;
57309;SDS011;43153;50.984;18.204;2022-12-04T07:30:24;40.70;;;19.00;;
57309;SDS011;43153;50.984;18.204;2022-12-04T07:32:50;39.50;;;18.90;;
57309;SDS011;43153;50.984;18.204;2022-12-04T07:35:22;89.00;;;27.20;;
57309;SDS011;43153;50.984;18.204;2022-12-04T07:37:48;72.80;;;26.00;;
57309;SDS011;43153;50.984;18.204;2022-12-04T07:40:14;54.20;;;21.00;;
57309;SDS011;43153;50.984;18.204;2022-12-04T07:42:44;60.80;;;24.00;;
57309;SDS011;43153;50.984;18.204;2022-12-04T07:45:11;50.60;;;22.70;;
57309;SDS011;43153;50.984;18.204;2022-12-04T07:47:39;41.70;;;19.40;;
57309;SDS011;43153;50.984;18.204;2022-12-04T07:50:07;54.60;;;24.00;;
57309;SDS011;43153;50.984;18.204;2022-12-04T07:52:36;56.90;;;24.10;;
57309;SDS011;43153;50.984;18.204;2022-12-04T07:55:03;53.70;;;23.40;;
57309;SDS011;43153;50.984;18.204;2022-12-04T07:57:31;55.10;;;25.30;;
57309;SDS011;43153;50.984;18.204;2022-12-04T07:59:59;40.10;;;19.30;;
57309;SDS011;43153;50.984;18.204;2022-12-04T08:02:25;49.20;;;23.40;;
57309;SDS011;43153;50.984;18.204;2022-12-04T08:04:54;65.00;;;30.10;;
57309;SDS011;43153;50.984;18.204;2022-12-04T08:07:20;51.10;;;21.40;;
57309;SDS011;43153;50.984;18.204;2022-12-04T08:09:46;45.60;;;16.10;;
57309;SDS011;43153;50.984;18.204;2022-12-04T08:12:16;43.10;;;19.00;;
57309;SDS011;43153;50.984;18.204;2022-12-04T08:14:47;40.10;;;16.00;;
57309;SDS011;43153;50.984;18.204;2022-12-04T08:17:13;54.10;;;21.60;;
57309;SDS011;43153;50.984;18.204;2022-12-04T08:19:45;52.40;;;23.50;;
57309;SDS011;43153;50.984;18.204;2022-12-04T08:22:13;44.50;;;18.00;;
57309;SDS011;43153;50.984;18.204;2022-12-04T08:24:53;58.10;;;25.50;;
57309;SDS011;43153;50.984;18.204;2022-12-04T08:29:49;39.10;;;18.30;;
57309;SDS011;43153;50.984;18.204;2022-12-04T08:32:17;42.90;;;20.80;;
57309;SDS011;43153;50.984;18.204;2022-12-04T08:34:43;36.40;;;16.70;;
57309;SDS011;43153;50.984;18.204;2022-12-04T08:37:13;37.90;;;15.50;;
57309;SDS011;43153;50.984;18.204;2022-12-04T08:39:45;35.50;;;16.20;;
57309;SDS011;43153;50.984;18.204;2022-12-04T08:42:13;43.80;;;20.80;;
57309;SDS011;43153;50.984;18.204;2022-12-04T08:44:42;34.90;;;17.70;;
57309;SDS011;43153;50.984;18.204;2022-12-04T08:47:10;43.60;;;19.60;;
57309;SDS011;43153;50.984;18.204;2022-12-04T08:49:36;35.50;;;16.40;;
57309;SDS011;43153;50.984;18.204;2022-12-04T08:52:02;36.30;;;16.30;;
57309;SDS011;43153;50.984;18.204;2022-12-04T08:54:36;38.70;;;20.20;;
57309;SDS011;43153;50.984;18.204;2022-12-04T08:59:30;41.00;;;20.70;;
57309;SDS011;43153;50.984;18.204;2022-12-04T09:01:59;34.40;;;16.80;;
57309;SDS011;43153;50.984;18.204;2022-12-04T09:04:27;37.60;;;17.20;;
57309;SDS011;43153;50.984;18.204;2022-12-04T09:06:55;37.10;;;17.20;;
57309;SDS011;43153;50.984;18.204;2022-12-04T09:09:24;40.10;;;19.60;;
57309;SDS011;43153;50.984;18.204;2022-12-04T09:11:51;42.00;;;21.40;;
57309;SDS011;43153;50.984;18.204;2022-12-04T09:14:21;39.90;;;19.50;;
57309;SDS011;43153;50.984;18.204;2022-12-04T09:16:53;42.80;;;21.20;;
57309;SDS011;43153;50.984;18.204;2022-12-04T09:19:22;32.70;;;16.50;;
57309;SDS011;43153;50.984;18.204;2022-12-04T09:21:50;33.60;;;16.20;;
57309;SDS011;43153;50.984;18.204;2022-12-04T09:24:20;33.10;;;15.60;;
57309;SDS011;43153;50.984;18.204;2022-12-04T09:26:46;31.70;;;14.70;;
57309;SDS011;43153;50.984;18.204;2022-12-04T09:29:13;32.70;;;16.50;;
57309;SDS011;43153;50.984;18.204;2022-12-04T09:31:46;33.60;;;16.50;;
57309;SDS011;43153;50.984;18.204;2022-12-04T09:34:17;28.60;;;14.50;;
57309;SDS011;43153;50.984;18.204;2022-12-04T09:36:43;32.50;;;15.80;;
57309;SDS011;43153;50.984;18.204;2022-12-04T09:39:09;30.40;;;15.10;;
57309;SDS011;43153;50.984;18.204;2022-12-04T09:44:23;29.90;;;15.30;;
57309;SDS011;43153;50.984;18.204;2022-12-04T09:49:23;27.50;;;14.60;;
57309;SDS011;43153;50.984;18.204;2022-12-04T09:52:08;27.70;;;14.70;;
57309;SDS011;43153;50.984;18.204;2022-12-04T09:54:59;23.90;;;13.00;;
57309;SDS011;43153;50.984;18.204;2022-12-04T09:57:31;28.10;;;13.10;;
57309;SDS011;43153;50.984;18.204;2022-12-04T10:00:03;28.00;;;13.40;;
57309;SDS011;43153;50.984;18.204;2022-12-04T10:02:38;32.80;;;14.90;;
57309;SDS011;43153;50.984;18.204;2022-12-04T10:05:08;32.70;;;15.90;;
57309;SDS011;43153;50.984;18.204;2022-12-04T10:07:47;35.50;;;17.30;;
57309;SDS011;43153;50.984;18.204;2022-12-04T10:10:40;30.30;;;15.30;;
57309;SDS011;43153;50.984;18.204;2022-12-04T10:16:01;29.80;;;15.60;;
57309;SDS011;43153;50.984;18.204;2022-12-04T10:26:36;29.20;;;15.90;;
57309;SDS011;43153;50.984;18.204;2022-12-04T10:29:06;32.70;;;18.90;;
57309;SDS011;43153;50.984;18.204;2022-12-04T10:31:34;41.90;;;22.90;;
57309;SDS011;43153;50.984;18.204;2022-12-04T10:34:05;65.90;;;37.80;;
57309;SDS011;43153;50.984;18.204;2022-12-04T10:36:37;44.10;;;24.80;;
57309;SDS011;43153;50.984;18.204;2022-12-04T10:39:15;48.60;;;26.80;;
57309;SDS011;43153;50.984;18.204;2022-12-04T10:42:04;28.40;;;15.10;;
57309;SDS011;43153;50.984;18.204;2022-12-04T10:44:33;33.80;;;16.70;;
57309;SDS011;43153;50.984;18.204;2022-12-04T10:47:00;39.10;;;18.60;;
57309;SDS011;43153;50.984;18.204;2022-12-04T10:49:32;30.30;;;13.90;;
57309;SDS011;43153;50.984;18.204;2022-12-04T10:51:59;29.80;;;13.40;;
57309;SDS011;43153;50.984;18.204;2022-12-04T10:57:13;28.30;;;13.00;;
57309;SDS011;43153;50.984;18.204;2022-12-04T10:59:54;31.70;;;14.50;;
57309;SDS011;43153;50.984;18.204;2022-12-04T11:02:36;28.70;;;14.40;;
57309;SDS011;43153;50.984;18.204;2022-12-04T11:05:03;27.20;;;14.30;;
57309;SDS011;43153;50.984;18.204;2022-12-04T11:07:36;26.10;;;13.60;;
57309;SDS011;43153;50.984;18.204;2022-12-04T11:13:04;26.30;;;13.10;;
57309;SDS011;43153;50.984;18.204;2022-12-04T11:15:47;24.30;;;13.60;;
57309;SDS011;43153;50.984;18.204;2022-12-04T11:18:21;24.60;;;13.50;;
57309;SDS011;43153;50.984;18.204;2022-12-04T11:23:22;28.80;;;14.30;;
57309;SDS011;43153;50.984;18.204;2022-12-04T11:25:55;28.20;;;13.90;;
57309;SDS011;43153;50.984;18.204;2022-12-04T11:28:23;25.90;;;13.90;;
57309;SDS011;43153;50.984;18.204;2022-12-04T11:30:58;24.00;;;13.00;;
57309;SDS011;43153;50.984;18.204;2022-12-04T11:33:29;22.00;;;11.30;;
57309;SDS011;43153;50.984;18.204;2022-12-04T11:36:15;24.50;;;12.20;;
57309;SDS011;43153;50.984;18.204;2022-12-04T11:38:47;25.50;;;13.20;;
57309;SDS011;43153;50.984;18.204;2022-12-04T11:41:27;26.50;;;12.60;;
57309;SDS011;43153;50.984;18.204;2022-12-04T11:43:57;25.40;;;13.40;;
57309;SDS011;43153;50.984;18.204;2022-12-04T11:46:26;28.00;;;14.30;;
57309;SDS011;43153;50.984;18.204;2022-12-04T11:48:54;26.10;;;12.30;;
57309;SDS011;43153;50.984;18.204;2022-12-04T11:51:41;24.40;;;14.10;;
57309;SDS011;43153;50.984;18.204;2022-12-04T11:57:15;28.20;;;13.60;;
57309;SDS011;43153;50.984;18.204;2022-12-04T12:00:04;25.80;;;12.40;;
57309;SDS011;43153;50.984;18.204;2022-12-04T12:10:47;26.00;;;13.30;;
57309;SDS011;43153;50.984;18.204;2022-12-04T12:19:25;29.30;;;14.50;;
57309;SDS011;43153;50.984;18.204;2022-12-04T12:25:24;28.50;;;14.70;;
57309;SDS011;43153;50.984;18.204;2022-12-04T12:33:38;30.20;;;16.80;;
57309;SDS011;43153;50.984;18.204;2022-12-04T12:36:20;31.10;;;18.00;;
57309;SDS011;43153;50.984;18.204;2022-12-04T12:38:55;34.60;;;18.20;;
57309;SDS011;43153;50.984;18.204;2022-12-04T12:41:29;30.80;;;15.80;;
57309;SDS011;43153;50.984;18.204;2022-12-04T12:44:00;48.40;;;24.40;;
57309;SDS011;43153;50.984;18.204;2022-12-04T12:49:14;29.90;;;16.50;;
57309;SDS011;43153;50.984;18.204;2022-12-04T12:51:49;34.20;;;17.40;;
57309;SDS011;43153;50.984;18.204;2022-12-04T12:54:40;37.20;;;19.50;;
57309;SDS011;43153;50.984;18.204;2022-12-04T12:57:12;43.50;;;21.00;;
57309;SDS011;43153;50.984;18.204;2022-12-04T12:59:49;43.00;;;20.50;;
57309;SDS011;43153;50.984;18.204;2022-12-04T13:02:27;40.70;;;20.80;;
57309;SDS011;43153;50.984;18.204;2022-12-04T13:04:59;34.90;;;17.40;;
57309;SDS011;43153;50.984;18.204;2022-12-04T13:13:16;48.60;;;22.00;;
57309;SDS011;43153;50.984;18.204;2022-12-04T13:15:56;55.50;;;26.60;;
57309;SDS011;43153;50.984;18.204;2022-12-04T13:18:28;64.70;;;26.90;;
57309;SDS011;43153;50.984;18.204;2022-12-04T13:21:00;55.40;;;24.70;;
57309;SDS011;43153;50.984;18.204;2022-12-04T13:26:44;46.80;;;22.10;;
57309;SDS011;43153;50.984;18.204;2022-12-04T13:46:07;58.00;;;26.30;;
57309;SDS011;43153;50.984;18.204;2022-12-04T13:48:53;50.80;;;24.90;;
57309;SDS011;43153;50.984;18.204;2022-12-04T13:56:50;40.80;;;19.30;;
57309;SDS011;43153;50.984;18.204;2022-12-04T14:01:57;41.80;;;18.50;;
57309;SDS011;43153;50.984;18.204;2022-12-04T14:04:37;30.40;;;15.20;;
57309;SDS011;43153;50.984;18.204;2022-12-04T14:07:06;39.40;;;17.90;;
57309;SDS011;43153;50.984;18.204;2022-12-04T14:09:47;34.70;;;16.40;;
57309;SDS011;43153;50.984;18.204;2022-12-04T14:12:22;34.10;;;18.80;;
57309;SDS011;43153;50.984;18.204;2022-12-04T14:14:54;35.50;;;16.30;;
57309;SDS011;43153;50.984;18.204;2022-12-04T14:17:27;36.40;;;17.30;;
57309;SDS011;43153;50.984;18.204;2022-12-04T14:20:03;36.80;;;15.30;;
57309;SDS011;43153;50.984;18.204;2022-12-04T14:25:06;39.00;;;18.20;;
57309;SDS011;43153;50.984;18.204;2022-12-04T14:27:46;42.70;;;19.40;;
57309;SDS011;43153;50.984;18.204;2022-12-04T14:32:55;43.30;;;18.70;;
57309;SDS011;43153;50.984;18.204;2022-12-04T14:35:28;45.00;;;23.10;;
57309;SDS011;43153;50.984;18.204;2022-12-04T14:38:00;56.60;;;26.70;;
57309;SDS011;43153;50.984;18.204;2022-12-04T14:40:34;49.80;;;21.10;;
57309;SDS011;43153;50.984;18.204;2022-12-04T14:43:03;48.60;;;22.00;;
57309;SDS011;43153;50.984;18.204;2022-12-04T14:45:34;45.30;;;20.70;;
57309;SDS011;43153;50.984;18.204;2022-12-04T14:59:47;49.10;;;22.60;;
57309;SDS011;43153;50.984;18.204;2022-12-04T15:02:20;48.00;;;21.70;;
57309;SDS011;43153;50.984;18.204;2022-12-04T15:04:57;46.20;;;20.60;;
57309;SDS011;43153;50.984;18.204;2022-12-04T15:07:30;47.30;;;21.10;;
57309;SDS011;43153;50.984;18.204;2022-12-04T15:10:09;47.80;;;20.50;;
57309;SDS011;43153;50.984;18.204;2022-12-04T15:13:07;49.10;;;21.80;;
57309;SDS011;43153;50.984;18.204;2022-12-04T15:15:35;48.30;;;20.00;;
57309;SDS011;43153;50.984;18.204;2022-12-04T15:18:12;44.80;;;18.60;;
57309;SDS011;43153;50.984;18.204;2022-12-04T15:23:18;47.40;;;21.20;;
57309;SDS011;43153;50.984;18.204;2022-12-04T15:25:51;46.00;;;20.10;;
57309;SDS011;43153;50.984;18.204;2022-12-04T15:28:23;56.70;;;22.50;;
57309;SDS011;43153;50.984;18.204;2022-12-04T15:30:55;49.50;;;20.30;;
57309;SDS011;43153;50.984;18.204;2022-12-04T15:33:31;47.90;;;20.10;;
57309;SDS011;43153;50.984;18.204;2022-12-04T15:36:02;47.50;;;21.20;;
57309;SDS011;43153;50.984;18.204;2022-12-04T15:38:31;55.70;;;23.50;;
57309;SDS011;43153;50.984;18.204;2022-12-04T15:41:00;52.50;;;23.50;;
57309;SDS011;43153;50.984;18.204;2022-12-04T15:46:22;44.10;;;19.80;;
57309;SDS011;43153;50.984;18.204;2022-12-04T15:49:03;43.10;;;19.40;;
57309;SDS011;43153;50.984;18.204;2022-12-04T15:52:02;48.90;;;21.40;;
57309;SDS011;43153;50.984;18.204;2022-12-04T15:54:42;49.10;;;20.30;;
57309;SDS011;43153;50.984;18.204;2022-12-04T15:57:28;50.20;;;21.90;;
57309;SDS011;43153;50.984;18.204;2022-12-04T16:00:05;49.00;;;20.50;;
57309;SDS011;43153;50.984;18.204;2022-12-04T16:05:24;44.90;;;20.00;;
57309;SDS011;43153;50.984;18.204;2022-12-04T16:16:31;62.20;;;25.50;;
57309;SDS011;43153;50.984;18.204;2022-12-04T16:18:57;44.20;;;18.90;;
57309;SDS011;43153;50.984;18.204;2022-12-04T16:21:25;49.60;;;19.40;;
57309;SDS011;43153;50.984;18.204;2022-12-04T16:23:59;47.10;;;20.00;;
57309;SDS011;43153;50.984;18.204;2022-12-04T16:26:27;39.90;;;17.30;;
57309;SDS011;43153;50.984;18.204;2022-12-04T16:28:54;43.40;;;18.00;;
57309;SDS011;43153;50.984;18.204;2022-12-04T16:31:20;37.60;;;15.80;;
57309;SDS011;43153;50.984;18.204;2022-12-04T16:33:47;41.80;;;17.90;;
57309;SDS011;43153;50.984;18.204;2022-12-04T16:36:13;44.00;;;17.10;;
57309;SDS011;43153;50.984;18.204;2022-12-04T16:38:39;45.50;;;20.00;;
57309;SDS011;43153;50.984;18.204;2022-12-04T16:41:06;40.30;;;18.40;;
57309;SDS011;43153;50.984;18.204;2022-12-04T16:43:38;44.40;;;18.40;;
57309;SDS011;43153;50.984;18.204;2022-12-04T16:46:05;37.80;;;16.80;;
57309;SDS011;43153;50.984;18.204;2022-12-04T16:48:34;42.80;;;18.60;;
57309;SDS011;43153;50.984;18.204;2022-12-04T16:51:00;36.90;;;16.00;;
57309;SDS011;43153;50.984;18.204;2022-12-04T16:53:26;44.40;;;15.90;;
57309;SDS011;43153;50.984;18.204;2022-12-04T16:55:52;39.10;;;17.40;;
57309;SDS011;43153;50.984;18.204;2022-12-04T16:58:19;39.60;;;16.10;;
57309;SDS011;43153;50.984;18.204;2022-12-04T17:00:51;43.70;;;16.80;;
57309;SDS011;43153;50.984;18.204;2022-12-04T17:03:28;39.50;;;18.20;;
57309;SDS011;43153;50.984;18.204;2022-12-04T17:05:56;41.00;;;17.90;;
57309;SDS011;43153;50.984;18.204;2022-12-04T17:08:26;48.00;;;18.90;;
57309;SDS011;43153;50.984;18.204;2022-12-04T17:10:52;39.40;;;18.00;;